Tiempo atmosférico en la estación meteorológica de Barbadillo, Salamanca (817 m.)



Fecha
DESCASC
Temp. máxima en grados centígrados (hora)
DESCASC
Temp. mínima en grados centígrados (hora)
DESCASC
Temp. media en grados centígrados
DESCASC
Racha de viento máxima en m/sg (hora)
DESCASC
Velocidad máxima media en intervalos de 10 minutos(hora)
DESCASC
Precipitaciones diarias en mm
DESCASC
Precipitaciones de 00:00 a 06:00 en mm
DESCASC
Precipitaciones de 06:00 a 12:00 en mm
DESCASC
Precipitaciones de 12:00 a 18:00 en mm
DESCASC
Precipitaciones de 18:00 a 24:00 en mm
DESCASC
06-07-2020 34.2 (19:00) 14.5 (06:10) 24.4 10.56 (22:50) 7.22 (23:10) 0 0 0 0 0
05-07-2020 33.8 (18:20) 10.1 (07:30) 21.9 10 (12:50) 5 (12:50) 0 0 0 0 0
04-07-2020 31 (18:00) 8.4 (07:10) 19.7 8.33 (13:10) 4.72 (11:50) 0 0 0 0 0
03-07-2020 27.9 (17:20) 9.4 (07:20) 18.6 10 (13:20) 5.28 (08:50) 0 0 0 0 0
02-07-2020 26.5 (17:00) 10.9 (00:00) 18.7 11.67 (15:20) 6.11 (16:40) 0 0 0 0 0
01-07-2020 30.4 (16:50) 16 (00:00) 23.2 10.56 (17:10) 6.94 (18:20) 0 0 0 0 0
30-06-2020 33.6 (18:00) 15 (00:00) 24.3 10.83 (18:10) 6.67 (18:10) 0 0 0 0 0
29-06-2020 32.8 (18:10) 11.4 (00:00) 22.1 7.5 (16:30) 4.17 (17:00) 0 0 0 0 0
28-06-2020 30.1 (18:50) 11.3 (00:00) 20.7 8.33 (18:10) 4.72 (19:20) 0 0 0 0 0
27-06-2020 26.6 (17:00) 12 (00:00) 19.3 9.17 (15:00) 5.28 (18:20) 0 0 0 0 0
26-06-2020 26.5 (16:30) 12.4 (00:00) 19.4 13.06 (15:50) 6.39 (15:00) 0 0 0 0 0
25-06-2020 31.5 (16:30) 13.1 (00:00) 22.3 13.61 (13:50) 7.78 (15:00) 0 0 0 0 0
24-06-2020 31.6 (14:10) 16.1 (00:00) 23.9 13.06 (17:50) 7.5 (16:50) 0 0 0 0 0
23-06-2020 35.5 (16:50) 11.5 (00:00) 23.5 9.72 (19:50) 5.28 (16:50) 0 0 0 0 0
22-06-2020 32.9 (18:10) 12.6 (00:00) 22.8 10 (11:50) 6.11 (11:10) 0 0 0 0 0
21-06-2020 29 (19:00) 9.1 (00:00) 19.1 7.5 (15:30) 4.17 (16:00) 0 0 0 0 0
20-06-2020 29.2 (18:10) 8.5 (00:00) 18.9 10 (17:30) 5.28 (17:20) 0 0 0 0 0
19-06-2020 26.6 (16:50) 7 (00:00) 16.8 10.56 (14:30) 5 (19:00) 0 0 0 0 0
18-06-2020 24.8 (17:50) 6.1 (07:30) 15.4 9.44 (17:20) 5 (18:10) 0 0 0 0 0
17-06-2020 22.8 (17:40) 7.1 (00:00) 14.9 7.78 (17:10) 4.17 (17:10) 0 0 0 0 0
16-06-2020 21.3 (18:00) 11.1 (00:00) 16.2 11.67 (18:40) 7.22 (17:50) 0 0 0 0 0
15-06-2020 22.4 (16:30) 10.7 (00:00) 16.5 11.39 (18:50) 5.56 (17:50) 0 0 0 0 0
14-06-2020 21.7 (18:00) 5.1 (00:00) 13.4 10.28 (14:50) 5.28 (16:50) 0 0 0 0 0
13-06-2020 19.9 (17:50) 7.7 (00:00) 13.8 10.83 (16:30) 6.67 (15:40) 0 0 0 0 0
12-06-2020 15 (15:10) 8 (00:00) 11.5 14.17 (15:40) 8.33 (19:30) 2 0 0 1.2 0.8
11-06-2020 19.6 (16:40) 9.3 (00:00) 14.5 16.39 (18:10) 10.56 (16:20) 0 0 0 0 0
10-06-2020 24.9 (16:50) 4.6 (00:00) 14.7 10.83 (17:20) 5.83 (20:40) 0 0 0 0 0

Gráficas

Temp. máximas Temp. mínimas Temp. medias Precipitaciones Rachas de viento máximas Velocidades máximas media en intervalos de 10 minutos

Datos horarios

Fecha y hora oficial Temperatura (ºC) Velocidad del viento (km/h) Dirección del viento Racha (km/h) Dirección de racha Precipitación (mm) Presión (hPa) Tendencia (hPa) Humedad (%)
2020-07-09 23:00:00 24.9 8 Oeste 11 Oeste 0 -- -- 36
2020-07-09 22:00:00 26.3 8 Este 26 Norte 0 -- -- 34
2020-07-09 21:00:00 27.8 20 Noroeste 31 Noroeste 0 -- -- 31
2020-07-09 20:00:00 29.3 6 Norte 19 Oeste 0 -- -- 27
2020-07-09 19:00:00 32.2 9 Norte 22 Norte 0 -- -- 22
2020-07-09 18:00:00 32.3 9 Norte 22 Oeste 0 -- -- 20
2020-07-09 17:00:00 31.7 8 Noroeste 22 Oeste 0 -- -- 22
2020-07-09 16:00:00 32 10 Oeste 26 Oeste 0 -- -- 22
2020-07-09 15:00:00 31.1 8 Noroeste 22 Norte 0 -- -- 23
2020-07-09 14:00:00 30 7 Sudoeste 21 Noroeste 0 -- -- 26
2020-07-09 13:00:00 28 8 Noroeste 21 Oeste 0 -- -- 33
2020-07-09 12:00:00 26.2 9 Noroeste 21 Oeste 0 -- -- 38
2020-07-09 11:00:00 24.1 6 Noroeste 14 Noroeste 0 -- -- 44
2020-07-09 10:00:00 21.2 2 Noroeste 9 Norte 0 -- -- 52
2020-07-09 09:00:00 17.5 2 Oeste 8 Sur 0 -- -- 66
2020-07-09 08:00:00 13 3 Sur 7 Sur 0 -- -- 77
2020-07-09 07:00:00 12.7 0 Calma 6 Norte 0 -- -- 74
2020-07-09 06:00:00 13.8 6 Sur 9 Sur 0 -- -- 71
2020-07-09 05:00:00 16.2 6 Sur 9 Sur 0 -- -- 65
2020-07-09 04:00:00 17.7 4 Sur 17 Este 0 -- -- 59
2020-07-09 03:00:00 19.7 16 Este 32 Este 0 -- -- 54
2020-07-09 02:00:00 21.1 14 Este 30 Nordeste 0 -- -- 49
2020-07-09 01:00:00 21.3 6 Nordeste 16 Nordeste 0 -- -- 50
2020-07-09 00:00:00 22.8 8 Nordeste 18 Nordeste 0 -- -- 45
2020-07-08 23:00:00 24.7 4 Norte 19 Nordeste 0 -- -- 38
2020-07-08 22:00:00 27.6 2 Sudoeste 18 Sudoeste 0 -- -- 31
2020-07-08 21:00:00 31.1 14 Sudoeste 32 Sur 0 -- -- 26
2020-07-08 20:00:00 31.3 18 Sudoeste 27 Sudoeste 0 -- -- 28
2020-07-08 19:00:00 31.2 11 Sudeste 56 Sur 0 -- -- 33
2020-07-08 18:00:00 34.5 17 Sudoeste 36 Sur 0 -- -- 22
2020-07-08 17:00:00 34.5 20 Sudoeste 37 Sur 0 -- -- 22
2020-07-08 16:00:00 34.6 21 Sur 41 Oeste 0 -- -- 21
2020-07-08 15:00:00 34.9 16 Sudeste 37 Sur 0 -- -- 20
2020-07-08 14:00:00 35.2 12 Sudeste 32 Sur 0 -- -- 19
2020-07-08 13:00:00 34.1 15 Sudeste 32 Sur 0 -- -- 20
2020-07-08 12:00:00 32.7 13 Sudeste 25 Sudeste 0 -- -- 23
2020-07-08 11:00:00 29.3 5 Este 13 Nordeste 0 -- -- 30
2020-07-08 10:00:00 23.9 3 Norte 6 Norte 0 -- -- 42
2020-07-08 09:00:00 19.2 0 Calma 8 Noroeste 0 -- -- 52
2020-07-08 08:00:00 16.5 2 Noroeste 6 Sur 0 -- -- 57
2020-07-08 07:00:00 17.6 2 Sudoeste 7 Sudeste 0 -- -- 51
2020-07-08 06:00:00 18.3 4 Este 8 Sur 0 -- -- 52
2020-07-08 05:00:00 19.7 2 Noroeste 9 Noroeste 0 -- -- 47
2020-07-08 04:00:00 18.9 4 Sudeste 9 Sur 0 -- -- 47
2020-07-08 03:00:00 18.7 4 Sur 7 Sudoeste 0 -- -- 47
2020-07-08 02:00:00 19.8 0 Calma 8 Sur 0 -- -- 44
2020-07-08 01:00:00 21.1 4 Sur 8 Sur 0 -- -- 39
2020-07-08 00:00:00 21.9 4 Sudoeste 10 Sudeste 0 -- -- 37
2020-07-07 23:00:00 25 5 Sur 10 Sudeste 0 -- -- 32
2020-07-07 22:00:00 29.5 0 Calma 8 Oeste 0 -- -- 27
2020-07-07 21:00:00 33.5 6 Noroeste 20 Sudoeste 0 -- -- 20
2020-07-07 20:00:00 34.7 13 Sudoeste 32 Sudoeste 0 -- -- 19
2020-07-07 19:00:00 35.1 16 Oeste 35 Sudoeste 0 -- -- 20
2020-07-07 18:00:00 35.7 21 Oeste 43 Oeste 0 -- -- 18
2020-07-07 17:00:00 36 22 Oeste 38 Oeste 0 -- -- 17
2020-07-07 16:00:00 35.3 14 Oeste 34 Oeste 0 -- -- 23
2020-07-07 15:00:00 34 11 Oeste 32 Oeste 0 -- -- 24
2020-07-07 14:00:00 32 8 Noroeste 16 Norte 0 -- -- 31
2020-07-07 13:00:00 29.8 6 Nordeste 16 Nordeste 0 -- -- 36
2020-07-07 12:00:00 26.1 9 Este 19 Este 0 -- -- 41
2020-07-07 11:00:00 22.7 13 Este 21 Nordeste 0 -- -- 48
2020-07-07 10:00:00 19.4 13 Este 21 Nordeste 0 -- -- 54
2020-07-07 09:00:00 16.9 13 Este 25 Este 0 -- -- 61
2020-07-07 08:00:00 14.8 9 Este 14 Este 0 -- -- 66
2020-07-07 07:00:00 14.3 8 Este 15 Este 0 -- -- 66
2020-07-07 06:00:00 15.6 9 Este 18 Nordeste 0 -- -- 62
2020-07-07 05:00:00 17.2 7 Nordeste 18 Nordeste 0 -- -- 62
2020-07-07 04:00:00 18.2 8 Nordeste 15 Este 0 -- -- 60
2020-07-07 03:00:00 20.1 6 Norte 18 Este 0 -- -- 51
2020-07-07 02:00:00 21.2 14 Este 33 Este 0 -- -- 49
2020-07-07 01:00:00 22.3 23 Este 37 Este 0 -- -- 49
2020-07-07 00:00:00 24 21 Este 35 Este 0 -- -- 46
2020-07-06 23:00:00 26.7 19 Este 38 Nordeste 0 -- -- 41
2020-07-06 22:00:00 29.7 8 Nordeste 18 Nordeste 0 -- -- 37
2020-07-06 21:00:00 32.5 8 Nordeste 18 Nordeste 0 -- -- 31
2020-07-06 20:00:00 33.5 6 Nordeste 24 Norte 0 -- -- 28
2020-07-06 19:00:00 34.2 5 Sur 17 Noroeste 0 -- -- 27
2020-07-06 18:00:00 33.7 5 Norte 22 Nordeste 0 -- -- 28
2020-07-06 17:00:00 33.8 8 Nordeste 22 Nordeste 0 -- -- 29
2020-07-06 16:00:00 33.5 6 Norte 26 Nordeste 0 -- -- 30
2020-07-06 15:00:00 32.7 8 Noroeste 23 Este 0 -- -- 30
2020-07-06 14:00:00 31.7 8 Nordeste 22 Nordeste 0 -- -- 32
2020-07-06 13:00:00 30.2 12 Nordeste 23 Este 0 -- -- 36
2020-07-06 12:00:00 28 10 Nordeste 18 Nordeste 0 -- -- 41
2020-07-06 11:00:00 25.5 12 Nordeste 24 Nordeste 0 -- -- 46
2020-07-06 10:00:00 22.8 10 Nordeste 17 Nordeste 0 -- -- 51
2020-07-06 09:00:00 20.5 12 Este 17 Este 0 -- -- 58
2020-07-06 08:00:00 17.8 4 Este 13 Nordeste 0 -- -- 67
2020-07-06 07:00:00 16.4 7 Este 12 Nordeste 0 -- -- 70
2020-07-06 06:00:00 14.7 3 Este 5 Este 0 -- -- 61
2020-07-06 05:00:00 15.3 0 Calma 10 Norte 0 -- -- 57
2020-07-06 04:00:00 15.4 2 Sudoeste 5 Sudoeste 0 -- -- 56
2020-07-06 03:00:00 16.3 0 Calma 6 Sur 0 -- -- 52
2020-07-06 02:00:00 17.5 4 Sur 7 Sur 0 -- -- 48
2020-07-06 01:00:00 19 5 Sur 10 Sur 0 -- -- 45
2020-07-06 00:00:00 20.4 7 Sur 9 Sur 0 -- -- 41
2020-07-05 23:00:00 23.9 4 Sur 6 Norte 0 -- -- 34
2020-07-05 22:00:00 28.8 4 Norte 15 Noroeste 0 -- -- 29
2020-07-05 21:00:00 31.4 8 Norte 19 Norte 0 -- -- 24
2020-07-05 20:00:00 32.7 12 Norte 19 Norte 0 -- -- 22
2020-07-05 19:00:00 33 11 Norte 22 Este 0 -- -- 22
2020-07-05 18:00:00 33.6 5 Norte 19 Noroeste 0 -- -- 21
2020-07-05 17:00:00 33.4 8 Nordeste 24 Norte 0 -- -- 22
2020-07-05 16:00:00 32.8 9 Norte 23 Noroeste 0 -- -- 22
2020-07-05 15:00:00 32.3 8 Norte 23 Este 0 -- -- 23
2020-07-05 14:00:00 31.4 9 Este 23 Este 0 -- -- 25
2020-07-05 13:00:00 30.4 14 Nordeste 36 Este 0 -- -- 27
2020-07-05 12:00:00 28.9 12 Nordeste 21 Nordeste 0 -- -- 30
2020-07-05 11:00:00 25.9 9 Nordeste 18 Este 0 -- -- 36
2020-07-05 10:00:00 22.6 12 Este 22 Este 0 -- -- 44
2020-07-05 09:00:00 18.7 9 Este 12 Nordeste 0 -- -- 53
2020-07-05 08:00:00 11.3 0 Calma 4 Sur 0 -- -- 62
2020-07-05 07:00:00 10.2 3 Sur 5 Sur 0 -- -- 63
2020-07-05 06:00:00 11.3 4 Sur 6 Sur 0 -- -- 59
2020-07-05 05:00:00 12.4 2 Sur 6 Sudoeste 0 -- -- 55
2020-07-05 04:00:00 15.6 3 Sudoeste 17 Este 0 -- -- 47
2020-07-05 03:00:00 17.8 12 Este 20 Este 0 -- -- 42
2020-07-05 02:00:00 14.1 5 Este 9 Este 0 -- -- 50
2020-07-05 01:00:00 15.3 6 Sur 8 Sur 0 -- -- 45
2020-07-05 00:00:00 17 6 Sur 10 Sur 0 -- -- 41
2020-07-04 23:00:00 20.8 3 Sur 6 Sudeste 0 -- -- 34
2020-07-04 22:00:00 25.9 4 Norte 12 Norte 0 -- -- 27
2020-07-04 21:00:00 29.1 7 Norte 16 Nordeste 0 -- -- 23
2020-07-04 20:00:00 30.6 6 Norte 17 Noroeste 0 -- -- 19
2020-07-04 19:00:00 30.6 10 Norte 22 Noroeste 0 -- -- 20
2020-07-04 18:00:00 31 7 Noroeste 22 Nordeste 0 -- -- 21
2020-07-04 17:00:00 30.4 9 Norte 24 Norte 0 -- -- 22
2020-07-04 16:00:00 30.1 7 Nordeste 22 Este 0 -- -- 24
2020-07-04 15:00:00 29.1 7 Este 25 Nordeste 0 -- -- 26
2020-07-04 14:00:00 27.9 7 Este 30 Este 0 -- -- 26
2020-07-04 13:00:00 26.7 15 Este 29 Este 0 -- -- 30
2020-07-04 12:00:00 25.5 15 Nordeste 24 Este 0 -- -- 31
2020-07-04 11:00:00 23.1 11 Nordeste 19 Nordeste 0 -- -- 36
2020-07-04 10:00:00 20.2 12 Este 19 Nordeste 0 -- -- 43
2020-07-04 09:00:00 15.9 8 Este 16 Este 0 -- -- 54
2020-07-04 08:00:00 9.6 0 Calma 5 Sudoeste 0 -- -- 68
2020-07-04 07:00:00 8.6 6 Sur 9 Sur 0 -- -- 67
2020-07-04 06:00:00 9.7 2 Sur 13 Norte 0 -- -- 63
2020-07-04 05:00:00 10.2 0 Calma 7 Sur 0 -- -- 62
2020-07-04 04:00:00 11.6 0 Calma 6 Sudeste 0 -- -- 56
2020-07-04 03:00:00 14.1 2 Sur 17 Este 0 -- -- 51
2020-07-04 02:00:00 15.6 12 Este 21 Este 0 -- -- 48
2020-07-04 01:00:00 13.3 5 Sur 9 Sur 0 -- -- 52
2020-07-04 00:00:00 15.7 7 Sur 9 Sur 0 -- -- 45
2020-07-03 23:00:00 20.3 0 Calma 8 Norte 0 -- -- 36
2020-07-03 22:00:00 24 5 Norte 15 Norte 0 -- -- 31
2020-07-03 21:00:00 27.3 4 Nordeste 12 Nordeste 0 -- -- 27
2020-07-03 20:00:00 27.7 7 Nordeste 18 Noroeste 0 -- -- 25
2020-07-03 19:00:00 27.9 7 Norte 20 Norte 0 -- -- 24
2020-07-03 18:00:00 27.5 9 Norte 22 Nordeste 0 -- -- 25
2020-07-03 17:00:00 27.1 9 Norte 22 Nordeste 0 -- -- 29
2020-07-03 16:00:00 26.7 11 Este 26 Este 0 -- -- 31
2020-07-03 15:00:00 25.6 11 Este 23 Este 0 -- -- 34
2020-07-03 14:00:00 23.9 11 Nordeste 36 Este 0 -- -- 40
2020-07-03 13:00:00 22.1 10 Nordeste 23 Norte 0 -- -- 49
2020-07-03 12:00:00 20.2 14 Nordeste 23 Este 0 -- -- 53
2020-07-03 11:00:00 17.4 10 Nordeste 19 Este 0 -- -- 60
2020-07-03 10:00:00 15.3 13 Este 23 Este 0 -- -- 68
2020-07-03 09:00:00 13.3 18 Este 28 Este 0 -- -- 75
2020-07-03 08:00:00 11.3 11 Nordeste 18 Nordeste 0 -- -- 83
2020-07-03 07:00:00 9.6 2 Nordeste 8 Este 0 -- -- 85
2020-07-03 06:00:00 10.3 3 Norte 8 Nordeste 0 -- -- 83
2020-07-03 05:00:00 11 3 Nordeste 11 Nordeste 0 -- -- 81
2020-07-03 04:00:00 11.6 3 Nordeste 10 Norte 0 -- -- 77
2020-07-03 03:00:00 12.7 6 Norte 14 Norte 0 -- -- 76
2020-07-03 02:00:00 12.6 0 Calma 9 Sudeste 0 -- -- 62
2020-07-03 01:00:00 15.4 0 Calma 13 Noroeste 0 -- -- 56
2020-07-03 00:00:00 17.4 6 Noroeste 20 Noroeste 0 -- -- 51
2020-07-02 23:00:00 19.1 10 Noroeste 23 Noroeste 0 -- -- 48
2020-07-02 22:00:00 20.9 14 Noroeste 24 Noroeste 0 -- -- 43
2020-07-02 21:00:00 23.8 15 Noroeste 28 Noroeste 0 -- -- 30
2020-07-02 20:00:00 24.9 16 Noroeste 36 Oeste 0 -- -- 27
2020-07-02 19:00:00 25.6 18 Oeste 32 Oeste 0 -- -- 28
2020-07-02 18:00:00 26.2 18 Oeste 36 Oeste 0 -- -- 30
2020-07-02 17:00:00 26.5 21 Oeste 33 Oeste 0 -- -- 32
2020-07-02 16:00:00 26.1 18 Oeste 42 Oeste 0 -- -- 34
2020-07-02 15:00:00 25.6 14 Oeste 36 Sudoeste 0 -- -- 37
2020-07-02 14:00:00 24.8 18 Oeste 29 Oeste 0 -- -- 42
2020-07-02 13:00:00 23.6 11 Sudoeste 24 Sudoeste 0 -- -- 47
2020-07-02 12:00:00 22.3 9 Oeste 21 Oeste 0 -- -- 50
2020-07-02 11:00:00 20.5 9 Oeste 17 Oeste 0 -- -- 55
2020-07-02 10:00:00 18.5 10 Noroeste 18 Oeste 0 -- -- 64
2020-07-02 09:00:00 16.5 8 Oeste 16 Noroeste 0 -- -- 74
2020-07-02 08:00:00 12.2 3 Sur 5 Sur 0 -- -- 85
2020-07-02 07:00:00 11.4 3 Sur 8 Sur 0 -- -- 84
2020-07-02 06:00:00 12.6 4 Sur 8 Sur 0 -- -- 83
2020-07-02 05:00:00 13.3 4 Sur 6 Sur 0 -- -- 78
2020-07-02 04:00:00 14.5 3 Sudeste 6 Sur 0 -- -- 74
2020-07-02 03:00:00 16 3 Oeste 7 Sudeste 0 -- -- 71
2020-07-02 02:00:00 17.8 5 Sudoeste 15 Oeste 0 -- -- 65
2020-07-02 01:00:00 19.1 9 Oeste 19 Oeste 0 -- -- 60
2020-07-02 00:00:00 20.7 8 Oeste 15 Oeste 0 -- -- 52
2020-07-01 23:00:00 22.8 8 Noroeste 22 Oeste 0 -- -- 44
2020-07-01 22:00:00 24.7 11 Noroeste 28 Oeste 0 -- -- 41
2020-07-01 21:00:00 27.1 16 Noroeste 32 Oeste 0 -- -- 37
2020-07-01 20:00:00 29 15 Oeste 33 Oeste 0 -- -- 33
2020-07-01 19:00:00 29.5 18 Oeste 36 Sudoeste 0 -- -- 34
2020-07-01 18:00:00 30 20 Oeste 38 Oeste 0 -- -- 31
2020-07-01 17:00:00 30.2 22 Oeste 36 Noroeste 0 -- -- 30
2020-07-01 16:00:00 30 18 Oeste 34 Sudoeste 0 -- -- 33
2020-07-01 15:00:00 29.2 17 Oeste 33 Oeste 0 -- -- 33
2020-07-01 14:00:00 28.2 15 Oeste 29 Oeste 0 -- -- 37
2020-07-01 13:00:00 26.8 15 Oeste 26 Oeste 0 -- -- 44
2020-07-01 12:00:00 23.9 12 Oeste 27 Oeste 0 -- -- 55
2020-07-01 11:00:00 22.1 14 Oeste 31 Oeste 0 -- -- 62
2020-07-01 10:00:00 20.5 13 Oeste 25 Sudoeste 0 -- -- 68
2020-07-01 09:00:00 18.7 16 Oeste 23 Oeste 0 -- -- 79
2020-07-01 08:00:00 17 11 Oeste 18 Oeste 0 -- -- 83
2020-07-01 07:00:00 16.2 4 Sudoeste 12 Sudoeste 0 -- -- 82
2020-07-01 06:00:00 16.8 9 Sudoeste 14 Oeste 0 -- -- 80
2020-07-01 05:00:00 17.9 6 Sudoeste 15 Sudoeste 0 -- -- 76
2020-07-01 04:00:00 18.9 8 Sudoeste 13 Sudoeste 0 -- -- 72
2020-07-01 03:00:00 19.5 5 Sur 16 Sudoeste 0 -- -- 68
2020-07-01 02:00:00 20.6 10 Sudoeste 19 Oeste 0 -- -- 63
2020-07-01 01:00:00 22 11 Sudoeste 18 Sudoeste 0 -- -- 57
2020-07-01 00:00:00 23.6 8 Oeste 19 Sudoeste 0 -- -- 51
2020-06-30 23:00:00 25.2 10 Oeste 20 Oeste 0 -- -- 41
2020-06-30 22:00:00 27.5 8 Sudoeste 24 Oeste 0 -- -- 28
2020-06-30 21:00:00 31.1 14 Oeste 30 Sudoeste 0 -- -- 24
2020-06-30 20:00:00 32.4 18 Oeste 39 Oeste 0 -- -- 24
2020-06-30 19:00:00 33.2 20 Sudoeste 39 Oeste 0 -- -- 23
2020-06-30 18:00:00 33.6 18 Oeste 36 Oeste 0 -- -- 24
2020-06-30 17:00:00 32.6 21 Sudoeste 33 Sudoeste 0 -- -- 26
2020-06-30 16:00:00 32.6 14 Oeste 32 Sur 0 -- -- 27
2020-06-30 15:00:00 33.3 18 Sur 33 Sur 0 -- -- 24
2020-06-30 14:00:00 32.4 19 Oeste 32 Oeste 0 -- -- 31
2020-06-30 13:00:00 30.4 3 Norte 16 Noroeste 0 -- -- 36
2020-06-30 12:00:00 28.3 5 Nordeste 16 Nordeste 0 -- -- 42
2020-06-30 11:00:00 25.3 9 Nordeste 21 Este 0 -- -- 49
2020-06-30 10:00:00 22.6 13 Este 22 Nordeste 0 -- -- 55
2020-06-30 09:00:00 19.6 11 Este 17 Este 0 -- -- 63
2020-06-30 08:00:00 16.2 3 Este 4 Este 0 -- -- 79
2020-06-30 07:00:00 15 2 Sudoeste 6 Este 0 -- -- 78
2020-06-30 06:00:00 16.6 0 Calma 13 Este 0 -- -- 74
2020-06-30 05:00:00 15.6 3 Oeste 5 Oeste 0 -- -- 74
2020-06-30 04:00:00 17.8 3 Noroeste 14 Este 0 -- -- 66
2020-06-30 03:00:00 19.2 10 Este 19 Este 0 -- -- 66
2020-06-30 02:00:00 17.1 4 Sur 8 Sur 0 -- -- 62
2020-06-30 01:00:00 18.8 2 Sur 8 Sur 0 -- -- 57
2020-06-30 00:00:00 20.8 3 Sur 7 Sur 0 -- -- 52
2020-06-29 23:00:00 23.6 5 Sur 6 Sur 0 -- -- 45
2020-06-29 22:00:00 27.5 4 Norte 17 Noroeste 0 -- -- 38
2020-06-29 21:00:00 30.1 12 Noroeste 21 Norte 0 -- -- 33
2020-06-29 20:00:00 32.3 9 Noroeste 24 Oeste 0 -- -- 30
2020-06-29 19:00:00 32.5 14 Oeste 21 Oeste 0 -- -- 28
2020-06-29 18:00:00 32.7 12 Sudoeste 26 Oeste 0 -- -- 27
2020-06-29 17:00:00 32.2 15 Oeste 27 Oeste 0 -- -- 27
2020-06-29 16:00:00 31.6 7 Noroeste 26 Oeste 0 -- -- 29
2020-06-29 15:00:00 30.4 11 Noroeste 23 Oeste 0 -- -- 34
2020-06-29 14:00:00 28.7 9 Oeste 17 Noroeste 0 -- -- 38
2020-06-29 13:00:00 26.6 7 Norte 12 Noroeste 0 -- -- 45
2020-06-29 12:00:00 24.9 5 Noroeste 10 Nordeste 0 -- -- 51
2020-06-29 11:00:00 23 4 Norte 14 Noroeste 0 -- -- 56
2020-06-29 10:00:00 19.9 3 Norte 9 Norte 0 -- -- 67
2020-06-29 09:00:00 17.2 0 Calma 4 Sur 0 -- -- 77
2020-06-29 08:00:00 12.6 3 Sur 5 Sur 0 -- -- 86
2020-06-29 07:00:00 11.8 3 Sudoeste 5 Sur 0 -- -- 84
2020-06-29 06:00:00 12.3 3 Sur 6 Sudoeste 0 -- -- 83
2020-06-29 05:00:00 13.4 3 Sur 6 Sur 0 -- -- 81
2020-06-29 04:00:00 14.3 5 Sur 7 Sur 0 -- -- 80
2020-06-29 03:00:00 15.5 6 Sur 7 Sur 0 -- -- 76
2020-06-29 02:00:00 17.2 4 Sur 5 Sur 0 -- -- 71
2020-06-29 01:00:00 19.1 3 Sudoeste 12 Noroeste 0 -- -- 65
2020-06-29 00:00:00 21.4 6 Noroeste 14 Noroeste 0 -- -- 61
2020-06-28 23:00:00 22.9 7 Noroeste 16 Noroeste 0 -- -- 56
2020-06-28 22:00:00 24.9 9 Noroeste 23 Oeste 0 -- -- 50
2020-06-28 21:00:00 27.5 14 Noroeste 25 Noroeste 0 -- -- 41
2020-06-28 20:00:00 28.8 14 Oeste 26 Oeste 0 -- -- 37
2020-06-28 19:00:00 29.7 14 Sudoeste 30 Noroeste 0 -- -- 35
2020-06-28 18:00:00 29.7 9 Oeste 25 Noroeste 0 -- -- 35
2020-06-28 17:00:00 29.3 8 Noroeste 30 Oeste 0 -- -- 36
2020-06-28 16:00:00 29 14 Oeste 30 Oeste 0 -- -- 37
2020-06-28 15:00:00 27.6 7 Noroeste 22 Oeste 0 -- -- 39
2020-06-28 14:00:00 26.4 11 Noroeste 22 Oeste 0 -- -- 42
2020-06-28 13:00:00 25.3 10 Oeste 21 Sudoeste 0 -- -- 49
2020-06-28 12:00:00 23.3 6 Oeste 20 Oeste 0 -- -- 55
2020-06-28 11:00:00 21.1 6 Oeste 14 Oeste 0 -- -- 63
2020-06-28 10:00:00 18.9 5 Norte 11 Noroeste 0 -- -- 72
2020-06-28 09:00:00 16.5 0 Calma 5 Sur 0 -- -- 81
2020-06-28 08:00:00 12.7 2 Sur 8 Sur 0 -- -- 90
2020-06-28 07:00:00 11.4 5 Sur 7 Sur 0 -- -- 89
2020-06-28 06:00:00 12 3 Sudoeste 6 Sur 0 -- -- 86
2020-06-28 05:00:00 13 4 Sur 6 Sur 0 -- -- 84
2020-06-28 04:00:00 14 4 Sur 6 Sur 0 -- -- 83
2020-06-28 03:00:00 14.8 3 Sur 5 Sur 0 -- -- 80
2020-06-28 02:00:00 16.1 4 Sudoeste 8 Oeste 0 -- -- 74
2020-06-28 01:00:00 17.8 5 Oeste 9 Noroeste 0 -- -- 72
2020-06-28 00:00:00 19.2 5 Noroeste 11 Noroeste 0 -- -- 65
2020-06-27 23:00:00 20.5 5 Oeste 14 Noroeste 0 -- -- 59
2020-06-27 22:00:00 22.4 10 Noroeste 22 Noroeste 0 -- -- 53
2020-06-27 21:00:00 24.3 12 Noroeste 24 Noroeste 0 -- -- 46
2020-06-27 20:00:00 25.1 13 Noroeste 28 Noroeste 0 -- -- 45
2020-06-27 19:00:00 25.3 16 Noroeste 32 Oeste 0 -- -- 45
2020-06-27 18:00:00 25.8 15 Oeste 27 Oeste 0 -- -- 44
2020-06-27 17:00:00 26.6 14 Oeste 32 Oeste 0 -- -- 43
2020-06-27 16:00:00 25.5 15 Noroeste 31 Oeste 0 -- -- 45
2020-06-27 15:00:00 25.1 17 Oeste 33 Oeste 0 -- -- 46
2020-06-27 14:00:00 23.8 15 Oeste 26 Oeste 0 -- -- 49
2020-06-27 13:00:00 22.2 12 Noroeste 27 Oeste 0 -- -- 54
2020-06-27 12:00:00 20.8 12 Oeste 24 Oeste 0 -- -- 59
2020-06-27 11:00:00 18.8 10 Oeste 19 Oeste 0 -- -- 66
2020-06-27 10:00:00 16.8 6 Noroeste 14 Oeste 0 -- -- 74
2020-06-27 09:00:00 15.1 6 Sudoeste 17 Oeste 0 -- -- 82
2020-06-27 08:00:00 14.8 7 Oeste 19 Oeste 0 -- -- 84
2020-06-27 07:00:00 12.7 3 Oeste 7 Sur 0 -- -- 89
2020-06-27 06:00:00 12.5 4 Sudoeste 9 Sur 0 -- -- 85
2020-06-27 05:00:00 13.2 2 Sur 10 Sudoeste 0 -- -- 82
2020-06-27 04:00:00 13.6 4 Sur 10 Sudoeste 0 -- -- 79
2020-06-27 03:00:00 14.6 6 Sur 16 Oeste 0 -- -- 77
2020-06-27 02:00:00 16.1 8 Oeste 18 Oeste 0 -- -- 72
2020-06-27 01:00:00 16.9 11 Oeste 18 Oeste 0 -- -- 68
2020-06-27 00:00:00 17.9 7 Oeste 15 Noroeste 0 -- -- 62
2020-06-26 23:00:00 19.8 8 Noroeste 21 Oeste 0 -- -- 55
2020-06-26 22:00:00 21.6 10 Noroeste 30 Oeste 0 -- -- 46
2020-06-26 21:00:00 23.6 18 Oeste 35 Oeste 0 -- -- 43
2020-06-26 20:00:00 24.9 19 Oeste 33 Oeste 0 -- -- 39
2020-06-26 19:00:00 25.5 21 Oeste 33 Oeste 0 -- -- 37
2020-06-26 18:00:00 25 18 Oeste 34 Noroeste 0 -- -- 30
2020-06-26 17:00:00 25.9 19 Oeste 37 Oeste 0 -- -- 28
2020-06-26 16:00:00 25.9 23 Sudoeste 47 Oeste 0 -- -- 30
2020-06-26 15:00:00 25.1 23 Oeste 37 Oeste 0 -- -- 36
2020-06-26 14:00:00 23.4 15 Oeste 28 Oeste 0 -- -- 44
2020-06-26 13:00:00 20.4 10 Oeste 23 Oeste 0 -- -- 55
2020-06-26 12:00:00 16.6 11 Sudoeste 22 Sudoeste 0 -- -- 75
2020-06-26 11:00:00 15.6 12 Sudoeste 26 Oeste 0 -- -- 78
2020-06-26 10:00:00 13.9 11 Oeste 24 Oeste 0 -- -- 86
2020-06-26 09:00:00 12.6 12 Oeste 23 Sudoeste 0 -- -- 91
2020-06-26 08:00:00 12.4 13 Oeste 21 Oeste 0 -- -- 92
2020-06-26 07:00:00 12.5 10 Oeste 17 Oeste 0 -- -- 91
2020-06-26 06:00:00 13.3 9 Sudoeste 17 Oeste 0 -- -- 90
2020-06-26 05:00:00 14.6 8 Oeste 15 Oeste 0 -- -- 89
2020-06-26 04:00:00 15.5 8 Sudoeste 15 Sudoeste 0 -- -- 87
2020-06-26 03:00:00 16.5 9 Sudoeste 14 Sudoeste 0 -- -- 84
2020-06-26 02:00:00 17.8 9 Sudoeste 16 Sudoeste 0 -- -- 78
2020-06-26 01:00:00 18.7 9 Sudoeste 14 Sudoeste 0 -- -- 60
2020-06-26 00:00:00 20.9 6 Sudoeste 18 Oeste 0 -- -- 48
2020-06-25 23:00:00 22.4 4 Sur 9 Sudeste 0 -- -- 47
2020-06-25 22:00:00 25.8 5 Oeste 20 Sudoeste 0 -- -- 39
2020-06-25 21:00:00 28.5 14 Sudoeste 32 Oeste 0 -- -- 34
2020-06-25 20:00:00 29.5 18 Sudoeste 31 Sudoeste 0 -- -- 32
2020-06-25 19:00:00 29.9 19 Sudoeste 35 Sudoeste 0 -- -- 31
2020-06-25 18:00:00 31.1 21 Sudoeste 41 Sur 0 -- -- 28
2020-06-25 17:00:00 31.3 20 Sudoeste 38 Sudoeste 0 -- -- 27
2020-06-25 16:00:00 31.2 20 Sudoeste 41 Sudoeste 0 -- -- 28
2020-06-25 15:00:00 30.2 28 Sur 41 Sur 0 -- -- 25
2020-06-25 14:00:00 30 26 Sudoeste 49 Sur 0 -- -- 29
2020-06-25 13:00:00 29.7 24 Sudoeste 37 Sudoeste 0 -- -- 31
2020-06-25 12:00:00 28.9 18 Sudoeste 37 Sudoeste 0 -- -- 34
2020-06-25 11:00:00 26.7 12 Sudoeste 22 Sudoeste 0 -- -- 43
2020-06-25 10:00:00 21.4 5 Oeste 13 Oeste 0 -- -- 59
2020-06-25 09:00:00 18 7 Oeste 11 Oeste 0 -- -- 67
2020-06-25 08:00:00 13.9 2 Sur 8 Sur 0 -- -- 77
2020-06-25 07:00:00 13.4 5 Sur 6 Sur 0 -- -- 76
2020-06-25 06:00:00 14.9 0 Calma 4 Sudeste 0 -- -- 72
2020-06-25 05:00:00 16.9 0 Calma 24 Este 0 -- -- 66
2020-06-25 04:00:00 17.8 17 Este 26 Este 0 -- -- 65
2020-06-25 03:00:00 18.5 18 Este 26 Este 0 -- -- 65
2020-06-25 02:00:00 19.5 11 Este 19 Nordeste 0 -- -- 62
2020-06-25 01:00:00 20.4 7 Nordeste 15 Nordeste 0 -- -- 58
2020-06-25 00:00:00 20.6 9 Nordeste 25 Nordeste 0 -- -- 58
2020-06-24 23:00:00 22.3 2 Sudoeste 18 Este 0 -- -- 47
2020-06-24 22:00:00 23.8 14 Este 26 Este 0 -- -- 43
2020-06-24 21:00:00 24.9 18 Este 26 Este 0 -- -- 41
2020-06-24 20:00:00 24.8 8 Norte 28 Norte 0 -- -- 46
2020-06-24 19:00:00 26 22 Este 36 Nordeste 0 -- -- 44
2020-06-24 18:00:00 26.6 19 Este 47 Este 0 -- -- 42
2020-06-24 17:00:00 26 19 Este 37 Este 0 -- -- 42
2020-06-24 16:00:00 27.2 11 Nordeste 33 Este 0 -- -- 42
2020-06-24 15:00:00 28.3 23 Este 37 Nordeste 0 -- -- 40
2020-06-24 14:00:00 31.2 6 Oeste 16 Noroeste 0 -- -- 35
2020-06-24 13:00:00 28.9 3 Este 17 Oeste 0 -- -- 40
2020-06-24 12:00:00 27.3 12 Oeste 25 Oeste 0 -- -- 47
2020-06-24 11:00:00 24.4 7 Oeste 19 Oeste 0 -- -- 53
2020-06-24 10:00:00 22.9 10 Sudoeste 15 Oeste 0 -- -- 61
2020-06-24 09:00:00 19.6 4 Oeste 11 Sudoeste 0 -- -- 72
2020-06-24 08:00:00 17.3 3 Sudoeste 8 Oeste 0 -- -- 73
2020-06-24 07:00:00 16.2 6 Sudeste 9 Sudeste 0 -- -- 71
2020-06-24 06:00:00 16.5 5 Sur 9 Oeste 0 -- -- 63
2020-06-24 05:00:00 18.4 3 Sudoeste 15 Este 0 -- -- 55
2020-06-24 04:00:00 16.3 0 Calma 5 Nordeste 0 -- -- 63
2020-06-24 03:00:00 16.9 5 Sur 8 Sur 0 -- -- 58
2020-06-24 02:00:00 17.2 7 Sur 10 Sur 0 -- -- 58
2020-06-24 01:00:00 18.5 8 Sur 10 Sur 0 -- -- 53
2020-06-24 00:00:00 20.2 3 Sur 10 Sur 0 -- -- 47
2020-06-23 23:00:00 23.4 3 Sur 5 Sur 0 -- -- 39
2020-06-23 22:00:00 28.6 5 Sur 12 Sudoeste 0 -- -- 30
2020-06-23 21:00:00 32.5 9 Sudoeste 24 Sur 0 -- -- 24
2020-06-23 20:00:00 33.6 16 Sudoeste 35 Sur 0 -- -- 22
2020-06-23 19:00:00 34.6 13 Oeste 31 Sudoeste 0 -- -- 22
2020-06-23 18:00:00 34.2 11 Sudoeste 30 Sudoeste 0 -- -- 21
2020-06-23 17:00:00 35.3 12 Sudoeste 28 Sudoeste 0 -- -- 19
2020-06-23 16:00:00 34.1 11 Noroeste 30 Oeste 0 -- -- 22
2020-06-23 15:00:00 34.5 11 Oeste 24 Sudoeste 0 -- -- 22
2020-06-23 14:00:00 33.4 8 Sur 19 Sudoeste 0 -- -- 24
2020-06-23 13:00:00 31.5 10 Noroeste 19 Noroeste 0 -- -- 28
2020-06-23 12:00:00 30 7 Norte 12 Noroeste 0 -- -- 34
2020-06-23 11:00:00 26.3 3 Nordeste 13 Este 0 -- -- 40
2020-06-23 10:00:00 23.3 9 Este 15 Este 0 -- -- 44
2020-06-23 09:00:00 19.3 10 Este 13 Este 0 -- -- 54
2020-06-23 08:00:00 13.1 0 Calma 6 Sur 0 -- -- 70
2020-06-23 07:00:00 11.6 0 Calma 9 Sur 0 -- -- 72
2020-06-23 06:00:00 12.4 2 Sur 7 Sur 0 -- -- 67
2020-06-23 05:00:00 13.9 4 Sur 7 Sur 0 -- -- 63
2020-06-23 04:00:00 16.6 0 Calma 4 Nordeste 0 -- -- 55
2020-06-23 03:00:00 19.1 3 Noroeste 22 Este 0 -- -- 48
2020-06-23 02:00:00 20.9 17 Este 26 Este 0 -- -- 43
2020-06-23 01:00:00 20.1 14 Este 21 Este 0 -- -- 44
2020-06-23 00:00:00 19.6 4 Sur 8 Sur 0 -- -- 49
2020-06-22 23:00:00 23.5 0 Calma 5 Sudeste 0 -- -- 42
2020-06-22 22:00:00 27.9 3 Nordeste 17 Nordeste 0 -- -- 31
2020-06-22 21:00:00 30.8 9 Norte 19 Nordeste 0 -- -- 27
2020-06-22 20:00:00 32.1 9 Nordeste 22 Nordeste 0 -- -- 27
2020-06-22 19:00:00 32.5 8 Noroeste 28 Este 0 -- -- 26
2020-06-22 18:00:00 32.8 7 Sur 18 Nordeste 0 -- -- 26
2020-06-22 17:00:00 32.2 7 Oeste 23 Este 0 -- -- 27
2020-06-22 16:00:00 31.6 9 Sudeste 24 Este 0 -- -- 28
2020-06-22 15:00:00 30.8 13 Nordeste 31 Nordeste 0 -- -- 31
2020-06-22 14:00:00 29.5 16 Este 32 Este 0 -- -- 34
2020-06-22 13:00:00 27.9 19 Nordeste 35 Este 0 -- -- 38
2020-06-22 12:00:00 26 19 Nordeste 36 Nordeste 0 -- -- 44
2020-06-22 11:00:00 22.8 17 Este 28 Nordeste 0 -- -- 53
2020-06-22 10:00:00 19.6 15 Este 24 Este 0 -- -- 66
2020-06-22 09:00:00 16.8 14 Este 22 Este 0 -- -- 75
2020-06-22 08:00:00 14.4 10 Este 15 Este 0 -- -- 85
2020-06-22 07:00:00 12.9 8 Este 11 Nordeste 0 -- -- 87
2020-06-22 06:00:00 13.6 4 Nordeste 6 Nordeste 0 -- -- 87
2020-06-22 05:00:00 12.8 2 Nordeste 8 Nordeste 0 -- -- 84
2020-06-22 04:00:00 12.9 3 Nordeste 7 Norte 0 -- -- 77
2020-06-22 03:00:00 14 0 Calma 9 Sur 0 -- -- 74
2020-06-22 02:00:00 14.8 5 Sur 9 Sur 0 -- -- 72
2020-06-22 01:00:00 16.3 4 Sur 6 Sur 0 -- -- 66
2020-06-22 00:00:00 18.9 2 Sur 7 Norte 0 -- -- 58
2020-06-21 23:00:00 21.3 2 Norte 8 Noroeste 0 -- -- 50
2020-06-21 22:00:00 25 3 Noroeste 12 Noroeste 0 -- -- 38
2020-06-21 21:00:00 27.4 7 Norte 18 Noroeste 0 -- -- 31
2020-06-21 20:00:00 28.7 10 Noroeste 22 Noroeste 0 -- -- 25
2020-06-21 19:00:00 29 9 Noroeste 20 Noroeste 0 -- -- 25
2020-06-21 18:00:00 28.6 8 Norte 24 Oeste 0 -- -- 26
2020-06-21 17:00:00 28 10 Norte 27 Noroeste 0 -- -- 29
2020-06-21 16:00:00 27.6 15 Noroeste 27 Noroeste 0 -- -- 32
2020-06-21 15:00:00 26.8 9 Noroeste 23 Noroeste 0 -- -- 33
2020-06-21 14:00:00 26.2 9 Noroeste 25 Oeste 0 -- -- 32
2020-06-21 13:00:00 24.5 9 Noroeste 17 Norte 0 -- -- 37
2020-06-21 12:00:00 22.8 9 Oeste 19 Oeste 0 -- -- 39
2020-06-21 11:00:00 20.4 6 Noroeste 16 Oeste 0 -- -- 45
2020-06-21 10:00:00 18 8 Noroeste 15 Noroeste 0 -- -- 64
2020-06-21 09:00:00 15.5 6 Sudoeste 10 Oeste 0 -- -- 74
2020-06-21 08:00:00 11.1 5 Sudoeste 9 Sur 0 -- -- 88
2020-06-21 07:00:00 9.2 4 Sudoeste 10 Sur 0 -- -- 88
2020-06-21 06:00:00 10.3 6 Sur 8 Sur 0 -- -- 84
2020-06-21 05:00:00 11.8 3 Sudeste 7 Sur 0 -- -- 79
2020-06-21 04:00:00 13 3 Sur 8 Sudoeste 0 -- -- 76
2020-06-21 03:00:00 14 6 Sudoeste 10 Oeste 0 -- -- 74
2020-06-21 02:00:00 14.9 5 Sudoeste 9 Oeste 0 -- -- 69
2020-06-21 01:00:00 16.5 5 Sudoeste 8 Sudoeste 0 -- -- 60
2020-06-21 00:00:00 19 3 Sudoeste 8 Oeste 0 -- -- 53
2020-06-20 23:00:00 21.5 5 Oeste 20 Noroeste 0 -- -- 48
2020-06-20 22:00:00 24.2 11 Noroeste 23 Oeste 0 -- -- 39
2020-06-20 21:00:00 26.7 12 Noroeste 27 Oeste 0 -- -- 31
2020-06-20 20:00:00 27.5 14 Noroeste 30 Oeste 0 -- -- 27
2020-06-20 19:00:00 28.4 14 Oeste 31 Oeste 0 -- -- 28
2020-06-20 18:00:00 29.1 18 Oeste 36 Oeste 0 -- -- 27
2020-06-20 17:00:00 28.8 16 Sudoeste 35 Oeste 0 -- -- 27
2020-06-20 16:00:00 28.3 17 Oeste 31 Oeste 0 -- -- 28
2020-06-20 15:00:00 27.3 11 Noroeste 33 Oeste 0 -- -- 31
2020-06-20 14:00:00 26.2 10 Oeste 21 Oeste 0 -- -- 35
2020-06-20 13:00:00 24.6 5 Norte 15 Noroeste 0 -- -- 38
2020-06-20 12:00:00 22.9 9 Oeste 15 Noroeste 0 -- -- 43
2020-06-20 11:00:00 20.7 4 Oeste 9 Oeste 0 -- -- 48
2020-06-20 10:00:00 17.9 2 Norte 6 Norte 0 -- -- 60
2020-06-20 09:00:00 14.5 0 Calma 4 Sur 0 -- -- 71
2020-06-20 08:00:00 9.5 2 Sur 4 Sudeste 0 -- -- 83
2020-06-20 07:00:00 8.6 0 Calma 5 Sur 0 -- -- 81
2020-06-20 06:00:00 9.6 3 Sur 6 Sur 0 -- -- 80
2020-06-20 05:00:00 10.8 4 Sur 5 Sur 0 -- -- 77
2020-06-20 04:00:00 11.9 2 Sur 8 Sur 0 -- -- 73
2020-06-20 03:00:00 12.5 5 Sur 8 Sur 0 -- -- 70
2020-06-20 02:00:00 13.1 5 Sur 11 Sudeste 0 -- -- 64
2020-06-20 01:00:00 13.8 4 Sur 7 Sur 0 -- -- 58
2020-06-20 00:00:00 14.9 5 Sur 6 Sur 0 -- -- 52
2020-06-19 23:00:00 18.4 3 Sur 12 Oeste 0 -- -- 43
2020-06-19 22:00:00 22.2 6 Noroeste 20 Noroeste 0 -- -- 35
2020-06-19 21:00:00 24.5 12 Noroeste 29 Oeste 0 -- -- 30
2020-06-19 20:00:00 25.8 14 Oeste 27 Noroeste 0 -- -- 27
2020-06-19 19:00:00 26.3 18 Oeste 31 Oeste 0 -- -- 23
2020-06-19 18:00:00 26.4 16 Oeste 30 Oeste 0 -- -- 26
2020-06-19 17:00:00 26.6 12 Oeste 32 Oeste 0 -- -- 26
2020-06-19 16:00:00 25.8 16 Oeste 32 Oeste 0 -- -- 26
2020-06-19 15:00:00 24.9 14 Sudoeste 38 Oeste 0 -- -- 31
2020-06-19 14:00:00 24.1 16 Oeste 29 Oeste 0 -- -- 36
2020-06-19 13:00:00 22.3 12 Sudoeste 22 Oeste 0 -- -- 42
2020-06-19 12:00:00 20.1 8 Oeste 14 Oeste 0 -- -- 49
2020-06-19 11:00:00 17.6 6 Norte 13 Noroeste 0 -- -- 55
2020-06-19 10:00:00 15.3 7 Oeste 14 Oeste 0 -- -- 67
2020-06-19 09:00:00 12.9 8 Noroeste 13 Noroeste 0 -- -- 77
2020-06-19 08:00:00 8.7 0 Calma 5 Sudeste 0 -- -- 89
2020-06-19 07:00:00 7.1 2 Sur 9 Sur 0 -- -- 86
2020-06-19 06:00:00 7.7 5 Sur 7 Sur 0 -- -- 85
2020-06-19 05:00:00 8.1 5 Sur 9 Sur 0 -- -- 83
2020-06-19 04:00:00 9.4 4 Sur 9 Sur 0 -- -- 78
2020-06-19 03:00:00 10.4 5 Sur 10 Sudeste 0 -- -- 77
2020-06-19 02:00:00 11.1 3 Sur 7 Sudoeste 0 -- -- 69
2020-06-19 01:00:00 12.4 5 Sur 8 Sur 0 -- -- 64
2020-06-19 00:00:00 15.1 3 Sudoeste 12 Oeste 0 -- -- 55
2020-06-18 23:00:00 17.7 4 Oeste 12 Oeste 0 -- -- 46
2020-06-18 22:00:00 20.3 9 Noroeste 21 Oeste 0 -- -- 39
2020-06-18 21:00:00 22.7 13 Noroeste 27 Oeste 0 -- -- 33
2020-06-18 20:00:00 23.7 15 Oeste 30 Noroeste 0 -- -- 33
2020-06-18 19:00:00 24.4 13 Oeste 29 Oeste 0 -- -- 33
2020-06-18 18:00:00 24.7 12 Oeste 34 Noroeste 0 -- -- 35
2020-06-18 17:00:00 24.1 12 Oeste 30 Oeste 0 -- -- 35
2020-06-18 16:00:00 23.4 12 Noroeste 28 Oeste 0 -- -- 38
2020-06-18 15:00:00 23 12 Sudoeste 24 Oeste 0 -- -- 39
2020-06-18 14:00:00 22 7 Noroeste 25 Oeste 0 -- -- 41
2020-06-18 13:00:00 20.6 6 Oeste 14 Oeste 0 -- -- 46
2020-06-18 12:00:00 18.9 4 Noroeste 15 Nordeste 0 -- -- 52
2020-06-18 11:00:00 17.5 6 Este 13 Nordeste 0 -- -- 57
2020-06-18 10:00:00 14.9 3 Norte 9 Nordeste 0 -- -- 68
2020-06-18 09:00:00 12 3 Norte 6 Norte 0 -- -- 78
2020-06-18 08:00:00 7.4 4 Sur 6 Sur 0 -- -- 87
2020-06-18 07:00:00 6.4 3 Sur 6 Sur 0 -- -- 85
2020-06-18 06:00:00 7.2 2 Sur 8 Sur 0 -- -- 84
2020-06-18 05:00:00 8.1 4 Sur 8 Sur 0 -- -- 82
2020-06-18 04:00:00 9.6 0 Calma 6 Sudeste 0 -- -- 75
2020-06-18 03:00:00 11.5 4 Sur 6 Sudoeste 0 -- -- 70
2020-06-18 02:00:00 13.5 4 Sur 10 Noroeste 0 -- -- 64
2020-06-18 01:00:00 15.9 4 Noroeste 11 Noroeste 0 -- -- 57
2020-06-18 00:00:00 16.6 8 Noroeste 14 Noroeste 0 -- -- 53
2020-06-17 23:00:00 17.6 6 Noroeste 18 Noroeste 0 -- -- 48
2020-06-17 22:00:00 19.2 10 Noroeste 25 Oeste 0 -- -- 43
2020-06-17 21:00:00 20.4 11 Noroeste 24 Oeste 0 -- -- 40
2020-06-17 20:00:00 21.3 13 Noroeste 23 Noroeste 0 -- -- 38
2020-06-17 19:00:00 21.7 11 Oeste 25 Oeste 0 -- -- 37
2020-06-17 18:00:00 22.3 10 Noroeste 28 Oeste 0 -- -- 36
2020-06-17 17:00:00 22.3 13 Oeste 25 Oeste 0 -- -- 35
2020-06-17 16:00:00 21.8 9 Noroeste 21 Oeste 0 -- -- 36
2020-06-17 15:00:00 19.6 6 Nordeste 21 Norte 0 -- -- 42
2020-06-17 14:00:00 19.8 5 Noroeste 15 Norte 0 -- -- 43
2020-06-17 13:00:00 17.8 6 Norte 17 Nordeste 0 -- -- 51
2020-06-17 12:00:00 16.3 5 Nordeste 16 Nordeste 0 -- -- 56
2020-06-17 11:00:00 14.8 6 Nordeste 16 Este 0 -- -- 63
2020-06-17 10:00:00 12.2 4 Norte 12 Oeste 0 -- -- 79
2020-06-17 09:00:00 10.2 7 Oeste 18 Oeste 0 -- -- 86
2020-06-17 08:00:00 9.2 8 Oeste 14 Oeste 0 -- -- 90
2020-06-17 07:00:00 8 3 Sur 6 Sur 0 -- -- 91
2020-06-17 06:00:00 7.1 3 Sudoeste 9 Sudoeste 0 -- -- 87
2020-06-17 05:00:00 7.6 4 Sur 9 Sur 0 -- -- 87
2020-06-17 04:00:00 8.5 6 Sudoeste 12 Oeste 0 -- -- 84
2020-06-17 03:00:00 9.8 2 Sur 14 Oeste 0 -- -- 79
2020-06-17 02:00:00 10.1 5 Sudoeste 9 Oeste 0 -- -- 78
2020-06-17 01:00:00 11.6 4 Sudoeste 12 Oeste 0 -- -- 70
2020-06-17 00:00:00 13.1 8 Oeste 14 Oeste 0 -- -- 63
2020-06-16 23:00:00 14.5 8 Oeste 17 Noroeste 0 -- -- 56
2020-06-16 22:00:00 16.8 11 Oeste 30 Oeste 0 -- -- 51
2020-06-16 21:00:00 18.8 19 Noroeste 35 Noroeste 0 -- -- 47
2020-06-16 20:00:00 19.8 18 Oeste 38 Oeste 0 -- -- 43
2020-06-16 19:00:00 20.8 22 Oeste 42 Oeste 0 -- -- 44
2020-06-16 18:00:00 21.3 21 Oeste 41 Oeste 0 -- -- 47
2020-06-16 17:00:00 19.5 22 Oeste 36 Oeste 0 -- -- 52
2020-06-16 16:00:00 19.9 18 Oeste 39 Sudoeste 0 -- -- 50
2020-06-16 15:00:00 19.1 20 Oeste 38 Oeste 0 -- -- 65
2020-06-16 14:00:00 20.3 19 Oeste 37 Sudoeste 0 -- -- 48
2020-06-16 13:00:00 20.3 17 Oeste 35 Oeste 0 -- -- 48
2020-06-16 12:00:00 18.8 12 Oeste 26 Oeste 0 -- -- 51
2020-06-16 11:00:00 16.5 11 Oeste 23 Oeste 0 -- -- 63
2020-06-16 10:00:00 14.8 12 Oeste 19 Oeste 0 -- -- 73
2020-06-16 09:00:00 13.6 10 Sudoeste 15 Sudoeste 0 -- -- 77
2020-06-16 08:00:00 11.6 5 Sudoeste 10 Oeste 0 -- -- 89
2020-06-16 07:00:00 11.3 6 Sudoeste 8 Sur 0 -- -- 88
2020-06-16 06:00:00 11.8 3 Sudoeste 10 Sudoeste 0 -- -- 85
2020-06-16 05:00:00 12.1 7 Oeste 15 Oeste 0 -- -- 81
2020-06-16 04:00:00 11.4 3 Sudoeste 8 Sudoeste 0 -- -- 80
2020-06-16 03:00:00 12.4 5 Oeste 14 Oeste 0 -- -- 76
2020-06-16 02:00:00 13.5 6 Oeste 14 Oeste 0 -- -- 72
2020-06-16 01:00:00 14.3 8 Oeste 17 Noroeste 0 -- -- 70
2020-06-16 00:00:00 14.8 8 Noroeste 20 Noroeste 0 -- -- 67
2020-06-15 23:00:00 15.2 13 Noroeste 25 Noroeste 0 -- -- 64
2020-06-15 22:00:00 15.9 13 Noroeste 29 Noroeste 0 -- -- 62
2020-06-15 21:00:00 17 18 Noroeste 31 Noroeste 0 -- -- 57
2020-06-15 20:00:00 18.9 17 Noroeste 32 Noroeste 0 -- -- 52
2020-06-15 19:00:00 20.8 17 Oeste 41 Noroeste 0 -- -- 45
2020-06-15 18:00:00 21.2 17 Noroeste 34 Noroeste 0 -- -- 45
2020-06-15 17:00:00 21.7 18 Oeste 38 Oeste 0 -- -- 45
2020-06-15 16:00:00 22.1 17 Oeste 34 Sudoeste 0 -- -- 44
2020-06-15 15:00:00 21.2 17 Oeste 31 Oeste 0 -- -- 48
2020-06-15 14:00:00 19.9 13 Sudoeste 26 Oeste 0 -- -- 50
2020-06-15 13:00:00 18.9 10 Oeste 25 Oeste 0 -- -- 51
2020-06-15 12:00:00 17.4 7 Oeste 22 Oeste 0 -- -- 56
2020-06-15 11:00:00 16.6 8 Oeste 21 Noroeste 0 -- -- 58
2020-06-15 10:00:00 14.6 9 Noroeste 17 Oeste 0 -- -- 65
2020-06-15 09:00:00 13.1 8 Noroeste 13 Oeste 0 -- -- 76
2020-06-15 08:00:00 11 2 Sudeste 5 Sur 0 -- -- 85
2020-06-15 07:00:00 10.8 3 Sur 4 Sur 0 -- -- 85
2020-06-15 06:00:00 10.9 3 Sur 5 Sur 0 -- -- 84
2020-06-15 05:00:00 11.3 3 Sur 5 Sudeste 0 -- -- 82
2020-06-15 04:00:00 11.7 3 Sur 5 Sur 0 -- -- 79
2020-06-15 03:00:00 11.8 3 Sur 5 Sur 0 -- -- 79
2020-06-15 02:00:00 11.7 3 Sur 6 Sudeste 0 -- -- 77
2020-06-15 01:00:00 12.4 2 Sudoeste 8 Oeste 0 -- -- 73
2020-06-15 00:00:00 13.3 5 Oeste 10 Oeste 0 -- -- 70
2020-06-14 23:00:00 14.6 6 Oeste 18 Noroeste 0 -- -- 65
2020-06-14 22:00:00 16.1 10 Noroeste 23 Noroeste 0 -- -- 59
2020-06-14 21:00:00 18.2 15 Noroeste 32 Noroeste 0 -- -- 51
2020-06-14 20:00:00 19.4 17 Oeste 31 Oeste 0 -- -- 47
2020-06-14 19:00:00 20.7 18 Oeste 32 Oeste 0 -- -- 43
2020-06-14 18:00:00 21.7 17 Oeste 32 Noroeste 0 -- -- 41
2020-06-14 17:00:00 21 17 Oeste 31 Oeste 0 -- -- 41
2020-06-14 16:00:00 21.1 15 Oeste 29 Oeste 0 -- -- 41
2020-06-14 15:00:00 19.7 13 Noroeste 37 Oeste 0 -- -- 43
2020-06-14 14:00:00 19.8 12 Oeste 28 Oeste 0 -- -- 43
2020-06-14 13:00:00 18.3 17 Oeste 29 Oeste 0 -- -- 45
2020-06-14 12:00:00 17.8 11 Oeste 23 Oeste 0 -- -- 46
2020-06-14 11:00:00 15.9 5 Oeste 14 Oeste 0 -- -- 50
2020-06-14 10:00:00 13.8 4 Noroeste 12 Sudoeste 0 -- -- 60
2020-06-14 09:00:00 10.4 2 Sudoeste 4 Sudoeste 0 -- -- 81
2020-06-14 08:00:00 6.7 0 Calma 6 Sur 0 -- -- 91
2020-06-14 07:00:00 5.2 6 Sur 9 Sur 0 -- -- 91
2020-06-14 06:00:00 5.9 6 Sur 9 Sur 0 -- -- 89
2020-06-14 05:00:00 6.5 6 Sur 9 Sur 0 -- -- 87
2020-06-14 04:00:00 6.9 5 Sur 6 Sur 0 -- -- 85
2020-06-14 03:00:00 7.6 5 Sur 9 Sudeste 0 -- -- 84
2020-06-14 02:00:00 8.7 6 Oeste 12 Oeste 0 -- -- 79
2020-06-14 01:00:00 9.9 7 Oeste 9 Oeste 0 -- -- 75
2020-06-14 00:00:00 11.7 5 Sur 8 Sudoeste 0 -- -- 73
2020-06-13 23:00:00 13.1 6 Oeste 15 Oeste 0 -- -- 64
2020-06-13 22:00:00 14.7 10 Oeste 27 Oeste 0 -- -- 61
2020-06-13 21:00:00 16.2 14 Oeste 28 Oeste 0 -- -- 57
2020-06-13 20:00:00 17.3 16 Oeste 33 Oeste 0 -- -- 53
2020-06-13 19:00:00 18.3 20 Oeste 34 Sudoeste 0 -- -- 50
2020-06-13 18:00:00 19.7 17 Oeste 39 Noroeste 0 -- -- 44
2020-06-13 17:00:00 19.3 22 Oeste 39 Sudoeste 0 -- -- 43
2020-06-13 16:00:00 18.8 24 Oeste 36 Oeste 0 -- -- 47
2020-06-13 15:00:00 17.7 18 Oeste 36 Oeste 0 -- -- 50
2020-06-13 14:00:00 16.3 17 Oeste 30 Oeste 0 -- -- 57
2020-06-13 13:00:00 15.7 15 Oeste 27 Oeste 0 -- -- 55
2020-06-13 12:00:00 14.6 16 Oeste 31 Oeste 0 -- -- 61
2020-06-13 11:00:00 13.7 15 Oeste 27 Oeste 0 -- -- 68
2020-06-13 10:00:00 11.8 17 Oeste 25 Oeste 0 -- -- 78
2020-06-13 09:00:00 10.3 15 Oeste 24 Oeste 0 -- -- 85
2020-06-13 08:00:00 8.4 13 Sudoeste 24 Sudoeste 0 -- -- 94
2020-06-13 07:00:00 7.7 11 Sudoeste 19 Sudoeste 0 -- -- 94
2020-06-13 06:00:00 7.9 12 Sudoeste 18 Sudoeste 0 -- -- 94
2020-06-13 05:00:00 8.1 12 Sudoeste 23 Sudoeste 0 -- -- 93
2020-06-13 04:00:00 8.7 12 Sudoeste 26 Sudoeste 0 -- -- 92
2020-06-13 03:00:00 9.4 13 Sudoeste 26 Sudoeste 0 -- -- 91
2020-06-13 02:00:00 9.5 16 Sudoeste 30 Sudoeste 0 -- -- 91
2020-06-13 01:00:00 9.9 17 Sudoeste 28 Sudoeste 0 -- -- 89
2020-06-13 00:00:00 10.2 15 Oeste 31 Sudoeste 0 -- -- 87
2020-06-12 23:00:00 10.2 15 Sudoeste 29 Sudoeste 0 -- -- 87
2020-06-12 22:00:00 10.6 13 Sudoeste 36 Oeste 0 -- -- 86
2020-06-12 21:00:00 12 21 Oeste 37 Oeste 0 -- -- 77
2020-06-12 20:00:00 11.6 16 Oeste 49 Oeste 0.6 -- -- 86
2020-06-12 19:00:00 14.3 27 Oeste 51 Sudoeste 0.2 -- -- 73
2020-06-12 18:00:00 13 26 Oeste 48 Oeste 0.2 -- -- 77
2020-06-12 17:00:00 12.4 24 Oeste 43 Oeste 0.2 -- -- 75
2020-06-12 16:00:00 12.1 23 Sudoeste 51 Sudoeste 0.2 -- -- 83
2020-06-12 15:00:00 14.2 24 Sudoeste 47 Sudoeste 0.2 -- -- 74
2020-06-12 14:00:00 13.3 24 Sudoeste 39 Oeste 0 -- -- 81
2020-06-12 13:00:00 11.9 24 Sudoeste 43 Sudoeste 0.4 -- -- 83
2020-06-12 12:00:00 12.2 27 Sudoeste 45 Sudoeste 0 -- -- 78
2020-06-12 11:00:00 10.1 18 Sudoeste 41 Sudoeste 0 -- -- 85
2020-06-12 10:00:00 10.4 23 Sudoeste 37 Oeste 0 -- -- 78
2020-06-12 09:00:00 9.6 22 Sudoeste 39 Sudoeste 0 -- -- 81
2020-06-12 08:00:00 8.6 21 Sudoeste 34 Sudoeste 0 -- -- 84
2020-06-12 07:00:00 8.8 20 Sudoeste 37 Sudoeste 0 -- -- 79
2020-06-12 06:00:00 8.6 17 Sudoeste 33 Sudoeste 0 -- -- 80
2020-06-12 05:00:00 8.5 18 Sudoeste 35 Oeste 0 -- -- 79
2020-06-12 04:00:00 8.1 14 Sudoeste 31 Oeste 0 -- -- 80
2020-06-12 03:00:00 8.8 15 Sudoeste 26 Sudoeste 0 -- -- 76
2020-06-12 02:00:00 8.4 15 Sudoeste 31 Oeste 0 -- -- 75
2020-06-12 01:00:00 9.5 15 Oeste 33 Oeste 0 -- -- 70
2020-06-12 00:00:00 9.9 14 Oeste 35 Oeste 0 -- -- 67
2020-06-11 23:00:00 10.7 18 Oeste 42 Oeste 0 -- -- 61
2020-06-11 22:00:00 12.3 22 Oeste 45 Oeste 0 -- -- 59
2020-06-11 21:00:00 14.8 27 Oeste 51 Oeste 0 -- -- 50
2020-06-11 20:00:00 15.8 28 Oeste 51 Oeste 0 -- -- 55
2020-06-11 19:00:00 17.4 31 Oeste 59 Oeste 0 -- -- 49
2020-06-11 18:00:00 18.9 29 Oeste 56 Oeste 0 -- -- 46
2020-06-11 17:00:00 18.7 36 Oeste 56 Sudoeste 0 -- -- 45
2020-06-11 16:00:00 18.9 31 Oeste 53 Oeste 0 -- -- 50
2020-06-11 15:00:00 18.8 26 Oeste 49 Oeste 0 -- -- 52
2020-06-11 14:00:00 17.9 29 Oeste 46 Oeste 0 -- -- 57
2020-06-11 13:00:00 16.8 26 Oeste 43 Sudoeste 0 -- -- 59
2020-06-11 12:00:00 15.9 22 Oeste 39 Sudoeste 0 -- -- 66
2020-06-11 11:00:00 14.3 22 Oeste 35 Sudoeste 0 -- -- 69
2020-06-11 10:00:00 12.2 16 Oeste 33 Oeste 0 -- -- 78
2020-06-11 09:00:00 10.1 17 Oeste 30 Oeste 0 -- -- 85
2020-06-11 08:00:00 9.6 14 Sudoeste 29 Sudoeste 0 -- -- 84
2020-06-11 07:00:00 9.3 15 Oeste 23 Oeste 0 -- -- 82
2020-06-11 06:00:00 9.7 9 Sudoeste 23 Oeste 0 -- -- 79
2020-06-11 05:00:00 10.5 13 Sudoeste 21 Oeste 0 -- -- 77
2020-06-11 04:00:00 11.8 14 Oeste 26 Oeste 0 -- -- 76
2020-06-11 03:00:00 12.5 10 Sudoeste 21 Oeste 0 -- -- 75
2020-06-11 02:00:00 13.6 10 Sudoeste 21 Sudoeste 0 -- -- 66
2020-06-11 01:00:00 14.8 12 Oeste 19 Sudoeste 0 -- -- 65
2020-06-11 00:00:00 15.9 9 Oeste 14 Oeste 0 -- -- 61
2020-06-10 23:00:00 17.6 11 Oeste 22 Oeste 0 -- -- 53
2020-06-10 22:00:00 19.8 8 Noroeste 27 Noroeste 0 -- -- 45
2020-06-10 21:00:00 22.3 18 Oeste 34 Oeste 0 -- -- 38
2020-06-10 20:00:00 23.7 15 Oeste 28 Oeste 0 -- -- 34
2020-06-10 19:00:00 24.3 19 Oeste 33 Oeste 0 -- -- 34
2020-06-10 18:00:00 23.8 15 Oeste 39 Oeste 0 -- -- 34
2020-06-10 17:00:00 24.8 19 Sudoeste 35 Sudoeste 0 -- -- 29
2020-06-10 16:00:00 24.3 17 Oeste 30 Oeste 0 -- -- 31
2020-06-10 15:00:00 23.4 13 Oeste 29 Sudoeste 0 -- -- 31
2020-06-10 14:00:00 22.8 9 Noroeste 26 Oeste 0 -- -- 33
2020-06-10 13:00:00 21.6 13 Oeste 24 Oeste 0 -- -- 36
2020-06-10 12:00:00 20 6 Sur 13 Sur 0 -- -- 40
2020-06-10 11:00:00 17.1 6 Nordeste 14 Este 0 -- -- 47
2020-06-10 10:00:00 13.7 8 Nordeste 14 Nordeste 0 -- -- 60
2020-06-10 09:00:00 10.1 6 Este 15 Este 0 -- -- 76
2020-06-10 08:00:00 6 0 Calma 5 Norte 0 -- -- 87
2020-06-10 07:00:00 4.7 0 Calma 5 Sur 0 -- -- 85
2020-06-10 06:00:00 5.2 4 Sudoeste 12 Sur 0 -- -- 84
2020-06-10 05:00:00 5.9 0 Calma 5 Sur 0 -- -- 80
2020-06-10 04:00:00 7.8 3 Sur 5 Sur 0 -- -- 76
2020-06-10 03:00:00 9.4 2 Sur 6 Sur 0 -- -- 70
2020-06-10 02:00:00 10 4 Sur 6 Sudeste 0 -- -- 68
2020-06-10 01:00:00 11.4 3 Sudoeste 5 Sur 0 -- -- 64
2020-06-10 00:00:00 13.1 0 Calma 6 Sudeste 0 -- -- 56